Mr Thomas — WDD7163 — position and weather

sailwx.info

Track history (hours):
 
Tides and Currents Weather Stations Pressure Air Temp Water Temp Dewpoint Dewpoint Depression Visibility Wind Speed Wind Dir Waves Ship Positions

Mr Thomas

Owner: CENTRAL BOAT RENTALS, BERWICK, LA. More information available from US FCC via Universal Licensing System and Coast Guard Vessel Documentation Center.

Last reported at 2018-Apr-19 14:47 UTC. Time now 2018-Apr-23 00:16 UTC.
Position N 29°32' W 090°51'.

Length 21 m; draft 2.5 m.

Type: Tug. MMSI: 367182730.

Date/timePositionNaut miles runAvg speedWind from/ knotsBaromVisibWave heightAir tempDewpointWater temp
2018-Apr-19 14:47N 29°32' W 090°51'2 7.6
2018-Apr-19 14:30N 29°32' W 090°48'3 6.4
2018-Apr-19 14:00N 29°34' W 090°45'3 5.2
2018-Apr-19 13:30N 29°35' W 090°43'1 2.1
2018-Apr-19 12:59N 29°37' W 090°43'0 0.0
2018-Apr-19 12:29N 29°37' W 090°43'0 0.1
2018-Apr-19 12:00N 29°37' W 090°43'1 2.0
2018-Apr-19 11:30N 29°36' W 090°43'1 2.6
2018-Apr-19 11:00N 29°34' W 090°43'0 0.0
2018-Apr-19 10:30N 29°34' W 090°43'0 0.1
2018-Apr-19 10:01N 29°34' W 090°43'1 2.4
2018-Apr-19 09:30N 29°33' W 090°42'2 3.2
2018-Apr-19 09:00N 29°32' W 090°42'2 3.3
2018-Apr-19 08:30N 29°30' W 090°43'2 3.3
2018-Apr-19 08:01N 29°28' W 090°43'2 3.3
2018-Apr-19 07:30N 29°27' W 090°43'2 3.2
2018-Apr-19 07:00N 29°25' W 090°43'2 3.2
2018-Apr-19 06:30N 29°23' W 090°44'2 3.3
2018-Apr-19 05:58N 29°22' W 090°44'2 3.3
2018-Apr-19 05:30N 29°20' W 090°44'1 0.1
2018-Apr-18 12:59N 29°19' W 090°43'4 7.4
2018-Apr-18 12:30N 29°23' W 090°44'4 8.5
2018-Apr-18 12:00N 29°27' W 090°43'4 8.8
2018-Apr-18 11:30N 29°31' W 090°42'3 5.6
2018-Apr-18 11:00N 29°34' W 090°43'4 8.4
2018-Apr-18 10:30N 29°32' W 090°48'6 9.2
2018-Apr-18 09:52N 29°33' W 090°54'3 0.2
2018-Apr-17 15:48N 29°32' W 090°51'2 7.4
2018-Apr-17 15:30N 29°32' W 090°49'3 6.3
2018-Apr-17 15:00N 29°33' W 090°45'2 4.1
2018-Apr-17 14:28N 29°34' W 090°43'2 3.5
2018-Apr-17 13:59N 29°32' W 090°42'0 0.5
2018-Apr-17 13:29N 29°33' W 090°42'0 0.5
2018-Apr-17 13:00N 29°32' W 090°42'0 0.1
2018-Apr-17 12:28N 29°32' W 090°42'0 0.0
2018-Apr-17 11:58N 29°32' W 090°42'0 0.0
2018-Apr-17 11:28N 29°32' W 090°42'0 0.0
2018-Apr-17 10:55N 29°32' W 090°42'0 0.0
2018-Apr-17 10:28N 29°32' W 090°42'0 0.0
2018-Apr-17 09:58N 29°32' W 090°42'0 0.0
2018-Apr-17 09:28N 29°32' W 090°42'0 0.0
2018-Apr-17 08:58N 29°32' W 090°42'0 0.0
2018-Apr-17 08:28N 29°32' W 090°42'0 0.0
2018-Apr-17 07:58N 29°32' W 090°42'0 0.0
2018-Apr-17 07:28N 29°32' W 090°42'0 0.0
2018-Apr-17 06:58N 29°32' W 090°42'0 0.0
2018-Apr-17 06:28N 29°32' W 090°42'0 0.0
2018-Apr-17 05:58N 29°32' W 090°42'0 0.0
2018-Apr-17 05:28N 29°32' W 090°42'1 2.7
2018-Apr-17 05:00N 29°34' W 090°43'1 2.1
2018-Apr-17 04:30N 29°33' W 090°43'0 0.1
2018-Apr-17 04:00N 29°33' W 090°43'0 0.0
2018-Apr-17 03:30N 29°33' W 090°43'0 0.2
2018-Apr-17 03:00N 29°33' W 090°43'0 0.3
2018-Apr-17 02:30N 29°33' W 090°42'0 0.2
2018-Apr-17 01:59N 29°33' W 090°42'0 0.0
2018-Apr-17 01:28N 29°33' W 090°42'0 0.1
2018-Apr-17 00:58N 29°33' W 090°42'0 0.0
2018-Apr-17 00:28N 29°33' W 090°42'0 0.2
2018-Apr-16 23:58N 29°33' W 090°42'0 0.0
2018-Apr-16 23:28N 29°33' W 090°42'0 0.0
2018-Apr-16 22:58N 29°33' W 090°42'0 0.1
2018-Apr-16 22:28N 29°33' W 090°42'0 0.0
2018-Apr-16 21:58N 29°33' W 090°42'0 0.1
2018-Apr-16 21:29N 29°33' W 090°42'0 0.6
2018-Apr-16 20:56N 29°33' W 090°42'1 1.4
2018-Apr-16 20:29N 29°33' W 090°43'0 0.4
2018-Apr-16 19:59N 29°34' W 090°43'0 0.4
2018-Apr-16 19:30N 29°34' W 090°43'1 1.5
2018-Apr-16 19:00N 29°33' W 090°42'1 1.6
2018-Apr-16 18:29N 29°34' W 090°43'0 0.0
2018-Apr-16 17:59N 29°34' W 090°43'0 0.0
2018-Apr-16 17:29N 29°34' W 090°43'0 0.1
2018-Apr-16 17:01N 29°34' W 090°43'1 1.9
2018-Apr-16 16:29N 29°33' W 090°43'0 0.9
2018-Apr-16 16:00N 29°33' W 090°42'1 3.0
2018-Apr-16 15:30N 29°34' W 090°43'2 4.6
2018-Apr-16 15:00N 29°33' W 090°45'3 6.9
2018-Apr-16 14:30N 29°32' W 090°49'5 7.2
2018-Apr-16 13:52N 29°33' W 090°54'  
2018-Apr-14 00:13N 29°32' W 090°51'2 6.8
2018-Apr-13 23:59N 29°32' W 090°49'3 6.2
2018-Apr-13 23:30N 29°33' W 090°46'3 5.6
2018-Apr-13 23:00N 29°34' W 090°43'3 5.2
2018-Apr-13 22:30N 29°37' W 090°42'3 6.2
2018-Apr-13 22:00N 29°36' W 090°39'3 5.9
2018-Apr-13 21:30N 29°35' W 090°36'3 6.4
2018-Apr-13 21:00N 29°34' W 090°32'4 0.2
2018-Apr-13 00:50N 29°33' W 090°28'3 8.1
2018-Apr-13 00:30N 29°34' W 090°31'4 8.0
2018-Apr-13 00:00N 29°35' W 090°35'4 7.4
2018-Apr-12 23:30N 29°36' W 090°39'3 5.5
2018-Apr-12 23:00N 29°36' W 090°43'3 5.9
2018-Apr-12 22:30N 29°34' W 090°45'4 7.6
2018-Apr-12 22:00N 29°32' W 090°49'0 0.7
2018-Apr-12 21:30N 29°32' W 090°49'3 6.8
2018-Apr-12 21:00N 29°33' W 090°45'3 5.4
2018-Apr-12 20:30N 29°35' W 090°43'2 4.8
2018-Apr-12 20:00N 29°37' W 090°42'3 6.8
2018-Apr-12 19:30N 29°35' W 090°38'3 6.7
2018-Apr-12 19:00N 29°34' W 090°34'4 7.4
2018-Apr-12 18:30N 29°34' W 090°30'  
Track history (hours):
 
Tides and Currents Weather Stations Pressure Air Temp Water Temp Dewpoint Dewpoint Depression Visibility Wind Speed Wind Dir Waves Ship Positions

Mr Thomas

Owner: CENTRAL BOAT RENTALS, BERWICK, LA. More information available from US FCC via Universal Licensing System and Coast Guard Vessel Documentation Center.

Last reported at 2018-Apr-19 14:47 UTC. Time now 2018-Apr-23 00:16 UTC.
Position N 29°32' W 090°51'.

Length 21 m; draft 2.5 m.

Type: Tug. MMSI: 367182730.

Date/timePositionNaut miles runAvg speedWind from/ knotsBaromVisibWave heightAir tempDewpointWater temp
2018-Apr-19 14:47N 29°32' W 090°51'2 7.6
2018-Apr-19 14:30N 29°32' W 090°48'3 6.4
2018-Apr-19 14:00N 29°34' W 090°45'3 5.2
2018-Apr-19 13:30N 29°35' W 090°43'1 2.1
2018-Apr-19 12:59N 29°37' W 090°43'0 0.0
2018-Apr-19 12:29N 29°37' W 090°43'0 0.1
2018-Apr-19 12:00N 29°37' W 090°43'1 2.0
2018-Apr-19 11:30N 29°36' W 090°43'1 2.6
2018-Apr-19 11:00N 29°34' W 090°43'0 0.0
2018-Apr-19 10:30N 29°34' W 090°43'0 0.1
2018-Apr-19 10:01N 29°34' W 090°43'1 2.4
2018-Apr-19 09:30N 29°33' W 090°42'2 3.2
2018-Apr-19 09:00N 29°32' W 090°42'2 3.3
2018-Apr-19 08:30N 29°30' W 090°43'2 3.3
2018-Apr-19 08:01N 29°28' W 090°43'2 3.3
2018-Apr-19 07:30N 29°27' W 090°43'2 3.2
2018-Apr-19 07:00N 29°25' W 090°43'2 3.2
2018-Apr-19 06:30N 29°23' W 090°44'2 3.3
2018-Apr-19 05:58N 29°22' W 090°44'2 3.3
2018-Apr-19 05:30N 29°20' W 090°44'1 0.1
2018-Apr-18 12:59N 29°19' W 090°43'4 7.4
2018-Apr-18 12:30N 29°23' W 090°44'4 8.5
2018-Apr-18 12:00N 29°27' W 090°43'4 8.8
2018-Apr-18 11:30N 29°31' W 090°42'3 5.6
2018-Apr-18 11:00N 29°34' W 090°43'4 8.4
2018-Apr-18 10:30N 29°32' W 090°48'6 9.2
2018-Apr-18 09:52N 29°33' W 090°54'3 0.2
2018-Apr-17 15:48N 29°32' W 090°51'2 7.4
2018-Apr-17 15:30N 29°32' W 090°49'3 6.3
2018-Apr-17 15:00N 29°33' W 090°45'2 4.1
2018-Apr-17 14:28N 29°34' W 090°43'2 3.5
2018-Apr-17 13:59N 29°32' W 090°42'0 0.5
2018-Apr-17 13:29N 29°33' W 090°42'0 0.5
2018-Apr-17 13:00N 29°32' W 090°42'0 0.1
2018-Apr-17 12:28N 29°32' W 090°42'0 0.0
2018-Apr-17 11:58N 29°32' W 090°42'0 0.0
2018-Apr-17 11:28N 29°32' W 090°42'0 0.0
2018-Apr-17 10:55N 29°32' W 090°42'0 0.0
2018-Apr-17 10:28N 29°32' W 090°42'0 0.0
2018-Apr-17 09:58N 29°32' W 090°42'0 0.0
2018-Apr-17 09:28N 29°32' W 090°42'0 0.0
2018-Apr-17 08:58N 29°32' W 090°42'0 0.0
2018-Apr-17 08:28N 29°32' W 090°42'0 0.0
2018-Apr-17 07:58N 29°32' W 090°42'0 0.0
2018-Apr-17 07:28N 29°32' W 090°42'0 0.0
2018-Apr-17 06:58N 29°32' W 090°42'0 0.0
2018-Apr-17 06:28N 29°32' W 090°42'0 0.0
2018-Apr-17 05:58N 29°32' W 090°42'0 0.0
2018-Apr-17 05:28N 29°32' W 090°42'1 2.7
2018-Apr-17 05:00N 29°34' W 090°43'1 2.1
2018-Apr-17 04:30N 29°33' W 090°43'0 0.1
2018-Apr-17 04:00N 29°33' W 090°43'0 0.0
2018-Apr-17 03:30N 29°33' W 090°43'0 0.2
2018-Apr-17 03:00N 29°33' W 090°43'0 0.3
2018-Apr-17 02:30N 29°33' W 090°42'0 0.2
2018-Apr-17 01:59N 29°33' W 090°42'0 0.0
2018-Apr-17 01:28N 29°33' W 090°42'0 0.1
2018-Apr-17 00:58N 29°33' W 090°42'0 0.0
2018-Apr-17 00:28N 29°33' W 090°42'0 0.2
2018-Apr-16 23:58N 29°33' W 090°42'0 0.0
2018-Apr-16 23:28N 29°33' W 090°42'0 0.0
2018-Apr-16 22:58N 29°33' W 090°42'0 0.1
2018-Apr-16 22:28N 29°33' W 090°42'0 0.0
2018-Apr-16 21:58N 29°33' W 090°42'0 0.1
2018-Apr-16 21:29N 29°33' W 090°42'0 0.6
2018-Apr-16 20:56N 29°33' W 090°42'1 1.4
2018-Apr-16 20:29N 29°33' W 090°43'0 0.4
2018-Apr-16 19:59N 29°34' W 090°43'0 0.4
2018-Apr-16 19:30N 29°34' W 090°43'1 1.5
2018-Apr-16 19:00N 29°33' W 090°42'1 1.6
2018-Apr-16 18:29N 29°34' W 090°43'0 0.0
2018-Apr-16 17:59N 29°34' W 090°43'0 0.0
2018-Apr-16 17:29N 29°34' W 090°43'0 0.1
2018-Apr-16 17:01N 29°34' W 090°43'1 1.9
2018-Apr-16 16:29N 29°33' W 090°43'0 0.9
2018-Apr-16 16:00N 29°33' W 090°42'1 3.0
2018-Apr-16 15:30N 29°34' W 090°43'2 4.6
2018-Apr-16 15:00N 29°33' W 090°45'3 6.9
2018-Apr-16 14:30N 29°32' W 090°49'5 7.2
2018-Apr-16 13:52N 29°33' W 090°54'  
2018-Apr-14 00:13N 29°32' W 090°51'2 6.8
2018-Apr-13 23:59N 29°32' W 090°49'3 6.2
2018-Apr-13 23:30N 29°33' W 090°46'3 5.6
2018-Apr-13 23:00N 29°34' W 090°43'3 5.2
2018-Apr-13 22:30N 29°37' W 090°42'3 6.2
2018-Apr-13 22:00N 29°36' W 090°39'3 5.9
2018-Apr-13 21:30N 29°35' W 090°36'3 6.4
2018-Apr-13 21:00N 29°34' W 090°32'4 0.2
2018-Apr-13 00:50N 29°33' W 090°28'3 8.1
2018-Apr-13 00:30N 29°34' W 090°31'4 8.0
2018-Apr-13 00:00N 29°35' W 090°35'4 7.4
2018-Apr-12 23:30N 29°36' W 090°39'3 5.5
2018-Apr-12 23:00N 29°36' W 090°43'3 5.9
2018-Apr-12 22:30N 29°34' W 090°45'4 7.6
2018-Apr-12 22:00N 29°32' W 090°49'0 0.7
2018-Apr-12 21:30N 29°32' W 090°49'3 6.8
2018-Apr-12 21:00N 29°33' W 090°45'3 5.4
2018-Apr-12 20:30N 29°35' W 090°43'2 4.8
2018-Apr-12 20:00N 29°37' W 090°42'3 6.8
2018-Apr-12 19:30N 29°35' W 090°38'3 6.7
2018-Apr-12 19:00N 29°34' W 090°34'4 7.4
2018-Apr-12 18:30N 29°34' W 090°30'  

Dump ship's entire track history